Time;durP1;ratioP1;P1;durP2;ratioP2;P2;SDS_P1;SDS_P2;PMS_P1;PMS_P2;Temp;Humidity;BMP_temperature;BMP_pressure;BME280_temperature;BME280_humidity;BME280_pressure;Samples;Min_cycle;Max_cycle;Signal;HPM_P1;HPM_P2
2021/01/20 00:02:04;;;;;;;3.67;2.25;;;;;;;4.33;78.80;99830.16;5024257;28;20044;-73
2021/01/20 00:04:29;;;;;;;3.88;2.20;;;;;;;4.36;79.00;99831.03;5021508;28;20082;-72
2021/01/20 00:06:55;;;;;;;3.67;1.90;;;;;;;4.40;78.22;99831.91;5020900;28;20018;-72
2021/01/20 00:09:20;;;;;;;5.10;2.38;;;;;;;4.47;78.15;99841.56;5020970;28;20127;-72
2021/01/20 00:11:45;;;;;;;3.70;2.08;;;;;;;4.51;77.92;99835.50;5024610;28;20492;-72
2021/01/20 00:14:16;;;;;;;4.10;2.28;;;;;;;4.54;77.82;99826.81;5023657;28;20507;-72
2021/01/20 00:16:42;;;;;;;4.28;2.00;;;;;;;4.61;77.63;99831.19;5013814;28;20052;-72
2021/01/20 00:19:08;;;;;;;4.72;2.10;;;;;;;4.63;77.51;99829.47;5014609;28;20034;-72
2021/01/20 00:21:35;;;;;;;3.97;2.42;;;;;;;4.61;77.71;99826.88;5022507;28;20099;-72
2021/01/20 00:24:00;;;;;;;3.72;2.42;;;;;;;4.66;77.77;99823.41;5023197;28;20042;-72
2021/01/20 00:26:25;;;;;;;4.55;2.40;;;;;;;4.70;76.98;99828.66;5023190;28;20037;-72
2021/01/20 00:28:51;;;;;;;4.03;2.25;;;;;;;4.73;77.80;99819.97;5019804;28;20084;-72
2021/01/20 00:42:37;;;;;;;3.90;2.30;;;;;;;4.86;76.95;99826.16;5019228;28;20052;-71
2021/01/20 00:45:04;;;;;;;3.88;2.30;;;;;;;4.86;76.68;99826.16;5022193;28;20033;-72
2021/01/20 00:47:29;;;;;;;4.72;2.65;;;;;;;4.91;77.22;99825.28;5021717;28;20060;-72
2021/01/20 00:49:55;;;;;;;4.63;2.45;;;;;;;4.96;76.99;99827.94;5022363;28;20041;-72
2021/01/20 00:52:20;;;;;;;7.95;3.50;;;;;;;5.01;76.82;99834.06;5023061;28;20484;-72
2021/01/20 00:54:45;;;;;;;8.55;3.85;;;;;;;5.06;76.62;99829.75;5018752;28;20044;-73
2021/01/20 00:57:11;;;;;;;9.25;4.80;;;;;;;5.07;76.79;99836.72;5019976;28;20030;-72
2021/01/20 00:59:37;;;;;;;8.75;4.07;;;;;;;5.13;76.62;99831.50;5017698;28;20594;-72
2021/01/20 01:02:02;;;;;;;10.93;4.60;;;;;;;5.08;76.24;99835.84;5007999;28;20033;-72
2021/01/20 01:04:34;;;;;;;7.70;3.80;;;;;;;5.05;76.05;99833.22;5017143;28;20674;-73
2021/01/20 01:06:59;;;;;;;6.85;3.40;;;;;;;5.10;76.50;99825.38;5019774;28;20048;-72
2021/01/20 01:09:25;;;;;;;8.82;4.10;;;;;;;5.08;76.35;99832.34;5015833;28;20112;-72
2021/01/20 01:11:51;;;;;;;5.03;3.00;;;;;;;5.11;75.90;99834.97;5018816;28;20061;-72
2021/01/20 01:14:16;;;;;;;7.07;4.20;;;;;;;5.11;75.95;99835.88;5014067;28;20026;-73
2021/01/20 01:16:50;;;;;;;6.75;3.67;;;;;;;5.13;75.62;99826.25;5010908;28;20038;-72
2021/01/20 01:19:31;;;;;;;5.80;3.28;;;;;;;5.11;75.42;99833.25;5028240;28;20569;-72
2021/01/20 01:21:56;;;;;;;6.38;3.60;;;;;;;5.09;75.19;99832.38;5021779;28;20033;-73
2021/01/20 01:24:23;;;;;;;6.40;3.72;;;;;;;5.11;75.23;99834.97;5020676;28;20029;-73
2021/01/20 01:26:50;;;;;;;8.05;3.45;;;;;;;5.11;75.05;99835.88;5019576;28;20041;-73
2021/01/20 01:29:16;;;;;;;8.23;3.83;;;;;;;5.14;75.02;99838.50;5014424;28;20030;-73
2021/01/20 01:31:53;;;;;;;10.13;4.57;;;;;;;5.11;75.31;99835.88;5003605;28;20049;-73
2021/01/20 01:34:19;;;;;;;10.23;4.78;;;;;;;5.10;75.40;99841.94;5019015;28;20087;-72
2021/01/20 01:36:45;;;;;;;8.35;3.72;;;;;;;5.08;75.30;99833.22;5018051;28;20038;-73
2021/01/20 01:39:45;;;;;;;10.82;4.78;;;;;;;5.05;75.35;99822.75;5022462;28;20124;-73
2021/01/20 01:42:12;;;;;;;9.05;4.32;;;;;;;5.05;74.95;99822.75;5021054;28;20515;-73
2021/01/20 01:44:38;;;;;;;8.23;4.30;;;;;;;5.02;75.31;99827.97;5020579;28;20077;-73
2021/01/20 01:47:03;;;;;;;9.95;4.25;;;;;;;4.97;74.92;99825.31;5018795;28;20034;-73
2021/01/20 01:49:42;;;;;;;8.90;3.65;;;;;;;4.98;75.17;99827.09;5022362;28;20116;-73
2021/01/20 01:52:10;;;;;;;8.98;3.90;;;;;;;4.98;75.32;99819.25;5020981;28;20033;-73
2021/01/20 01:54:36;;;;;;;8.77;4.57;;;;;;;5.05;75.07;99822.75;5020597;28;20048;-73
2021/01/20 01:57:09;;;;;;;9.90;4.57;;;;;;;5.00;74.67;99821.84;5013193;28;20390;-73
2021/01/20 01:59:40;;;;;;;10.32;4.88;;;;;;;5.04;74.91;99818.41;5015420;28;20048;-71
2021/01/20 02:02:14;;;;;;;9.77;4.45;;;;;;;5.05;74.88;99820.13;5023450;28;20052;-72
2021/01/20 02:04:39;;;;;;;10.52;5.53;;;;;;;5.05;74.91;99825.34;5019934;28;20033;-72
2021/01/20 02:07:11;;;;;;;8.48;4.43;;;;;;;5.05;74.44;99823.59;5028436;28;20411;-72
2021/01/20 02:09:38;;;;;;;8.20;4.38;;;;;;;4.98;74.82;99821.84;5028874;28;20040;-72
2021/01/20 02:12:26;;;;;;;7.18;4.00;;;;;;;4.99;75.05;99823.59;5017763;28;20049;-72
2021/01/20 02:15:08;;;;;;;6.20;3.95;;;;;;;4.91;74.96;99825.28;5022138;28;20033;-72
2021/01/20 02:17:52;;;;;;;6.10;3.35;;;;;;;4.84;74.64;99818.28;5021131;28;20117;-72
2021/01/20 02:20:31;;;;;;;5.35;3.13;;;;;;;4.84;75.02;99829.59;5026427;28;20025;-72
2021/01/20 02:22:59;;;;;;;6.18;3.65;;;;;;;4.79;74.99;99820.88;5020618;28;20039;-72
2021/01/20 02:26:11;;;;;;;6.43;3.17;;;;;;;4.73;74.89;99814.72;5020981;28;20095;-72
2021/01/20 02:29:18;;;;;;;4.88;2.70;;;;;;;4.73;74.74;99817.34;5019783;28;20501;-72
2021/01/20 02:31:52;;;;;;;6.72;3.00;;;;;;;4.68;74.65;99812.09;5025492;28;20038;-72
2021/01/20 02:34:21;;;;;;;4.32;2.75;;;;;;;4.66;74.79;99808.59;5020425;28;20080;-72
2021/01/20 02:36:48;;;;;;;5.32;2.60;;;;;;;4.74;74.42;99801.69;5018983;28;20109;-72
2021/01/20 02:39:37;;;;;;;4.93;2.90;;;;;;;4.72;74.23;99792.94;5008755;28;20393;-72
2021/01/20 02:42:21;;;;;;;4.88;2.65;;;;;;;4.68;74.15;99782.47;5013874;28;20041;-72
2021/01/20 02:44:53;;;;;;;6.03;3.42;;;;;;;4.67;74.25;99784.22;5017678;28;20749;-72
2021/01/20 02:47:39;;;;;;;5.60;2.78;;;;;;;4.70;74.02;99793.81;5021752;28;20122;-72
2021/01/20 02:50:10;;;;;;;4.88;2.58;;;;;;;4.67;73.85;99793.78;5020951;28;20133;-72
2021/01/20 02:53:02;;;;;;;4.63;2.33;;;;;;;4.64;73.65;99797.28;5020145;28;20083;-72
2021/01/20 02:55:54;;;;;;;6.32;2.65;;;;;;;4.62;73.56;99791.16;5025717;28;20080;-72
2021/01/20 02:58:40;;;;;;;4.65;2.22;;;;;;;4.57;73.06;99787.63;5025926;28;20099;-72
2021/01/20 03:01:25;;;;;;;5.70;2.45;;;;;;;4.52;73.63;99781.50;5022719;28;20076;-72
2021/01/20 03:03:51;;;;;;;4.13;1.80;;;;;;;4.47;73.13;99786.69;5025058;28;20044;-72
2021/01/20 03:06:17;;;;;;;5.35;2.28;;;;;;;4.47;73.46;99785.81;5025446;28;20045;-72
2021/01/20 03:08:45;;;;;;;5.03;1.90;;;;;;;4.41;72.91;99780.56;5022446;28;20072;-72
2021/01/20 03:11:10;;;;;;;3.20;1.95;;;;;;;4.32;72.64;99781.34;5022301;28;20046;-72
2021/01/20 03:13:38;;;;;;;4.68;2.10;;;;;;;4.24;73.04;99781.28;5023335;28;20540;-72
2021/01/20 03:16:05;;;;;;;4.72;2.10;;;;;;;4.16;73.44;99780.38;5019137;28;20053;-72
2021/01/20 03:18:30;;;;;;;3.78;1.58;;;;;;;4.10;73.31;99780.34;5015684;28;20144;-72
2021/01/20 03:20:55;;;;;;;4.38;1.75;;;;;;;4.03;73.72;99774.16;5022040;28;20120;-72
2021/01/20 03:23:20;;;;;;;4.13;1.92;;;;;;;3.95;73.38;99766.28;5021380;28;20046;-72
2021/01/20 03:25:46;;;;;;;4.28;1.90;;;;;;;3.92;74.00;99758.41;5025305;28;20103;-72
2021/01/20 03:28:11;;;;;;;3.40;1.65;;;;;;;3.83;74.07;99758.34;5025266;28;20128;-72
2021/01/20 03:30:36;;;;;;;4.80;1.70;;;;;;;3.73;73.69;99759.13;5022964;28;20077;-72
2021/01/20 03:33:02;;;;;;;3.20;1.70;;;;;;;3.69;74.10;99757.34;5020906;28;20042;-72
2021/01/20 03:35:27;;;;;;;3.65;1.48;;;;;;;3.60;73.64;99762.50;5022411;28;20050;-73
2021/01/20 03:37:52;;;;;;;4.47;1.48;;;;;;;3.59;73.94;99761.63;5024862;28;20046;-72
2021/01/20 03:40:18;;;;;;;4.07;1.50;;;;;;;3.54;74.07;99757.19;5025167;28;20139;-72
2021/01/20 03:42:43;;;;;;;3.53;1.45;;;;;;;3.49;74.10;99763.25;5021314;28;20052;-72
2021/01/20 03:45:09;;;;;;;3.88;1.40;;;;;;;3.40;74.87;99750.09;5021548;28;20067;-72
2021/01/20 03:47:34;;;;;;;6.32;3.05;;;;;;;3.32;74.38;99750.91;5023265;28;20046;-72
2021/01/20 03:49:59;;;;;;;6.45;2.00;;;;;;;3.22;74.78;99750.81;5024725;28;20030;-72
2021/01/20 03:52:25;;;;;;;5.38;1.70;;;;;;;3.13;74.91;99755.03;5023838;28;20049;-72
2021/01/20 03:54:50;;;;;;;6.07;2.10;;;;;;;3.04;75.22;99741.03;5021051;28;20041;-72
2021/01/20 03:57:15;;;;;;;4.50;2.53;;;;;;;2.97;75.63;99739.22;5021456;28;20439;-72
2021/01/20 03:59:41;;;;;;;4.03;1.77;;;;;;;2.96;75.64;99733.97;5023879;28;20037;-72
2021/01/20 04:02:06;;;;;;;5.47;1.65;;;;;;;2.93;75.23;99732.19;5020158;28;20564;-72
2021/01/20 04:04:32;;;;;;;9.32;3.80;;;;;;;2.92;75.38;99734.81;5024005;28;20112;-72
2021/01/20 04:07:01;;;;;;;5.20;2.30;;;;;;;2.90;75.50;99742.59;5023468;28;20120;-72
2021/01/20 04:09:26;;;;;;;7.70;2.47;;;;;;;2.85;75.45;99734.72;5017042;28;20037;-72
2021/01/20 04:11:51;;;;;;;4.90;1.63;;;;;;;2.80;75.39;99736.41;5025056;28;20034;-72
2021/01/20 04:14:17;;;;;;;4.80;1.65;;;;;;;2.79;75.01;99739.00;5020306;28;20103;-72
2021/01/20 04:16:43;;;;;;;2.92;1.20;;;;;;;2.77;75.31;99736.34;5020454;28;20045;-72
2021/01/20 04:19:08;;;;;;;3.92;1.40;;;;;;;2.72;75.13;99731.94;5014904;28;20030;-71
2021/01/20 04:21:33;;;;;;;6.32;1.70;;;;;;;2.68;75.56;99744.06;5022496;28;20040;-71
2021/01/20 04:23:59;;;;;;;3.17;1.20;;;;;;;2.67;75.59;99738.81;5023540;28;20033;-72
2021/01/20 04:26:25;;;;;;;3.92;1.30;;;;;;;2.63;75.32;99737.91;5023616;28;20045;-72
2021/01/20 04:28:50;;;;;;;3.67;1.40;;;;;;;2.62;75.41;99742.25;5020720;28;20065;-72
2021/01/20 04:31:16;;;;;;;3.25;1.20;;;;;;;2.62;75.20;99741.41;5020390;28;20183;-72
2021/01/20 04:33:41;;;;;;;3.53;1.27;;;;;;;2.64;75.01;99745.75;5022603;28;20557;-72
2021/01/20 04:36:06;;;;;;;3.55;1.30;;;;;;;2.70;75.14;99744.97;5023931;28;20112;-72
2021/01/20 04:38:32;;;;;;;3.25;1.73;;;;;;;2.70;74.99;99733.66;5022306;28;20507;-72
2021/01/20 04:40:58;;;;;;;4.55;1.55;;;;;;;2.73;74.94;99728.50;5020482;28;20523;-72
2021/01/20 04:43:24;;;;;;;3.22;1.10;;;;;;;2.77;74.52;99719.84;5019932;28;20041;-72
2021/01/20 04:45:51;;;;;;;3.22;1.67;;;;;;;2.80;74.87;99715.56;5023823;28;20517;-72
2021/01/20 04:48:16;;;;;;;3.50;1.70;;;;;;;2.85;74.08;99719.06;5023622;28;20040;-72
2021/01/20 04:50:42;;;;;;;4.55;1.98;;;;;;;2.89;74.26;99708.72;5019538;28;20136;-72
2021/01/20 04:53:09;;;;;;;3.85;1.85;;;;;;;2.91;73.81;99707.88;5019340;28;20049;-72
2021/01/20 04:55:38;;;;;;;4.10;1.35;;;;;;;2.95;73.68;99699.22;5021959;28;20551;-73
2021/01/20 04:58:03;;;;;;;3.58;1.00;;;;;;;2.95;73.57;99693.13;5023486;28;20532;-72
2021/01/20 05:00:29;;;;;;;3.33;1.25;;;;;;;3.00;73.42;99683.63;5018947;28;20072;-72
2021/01/20 05:02:55;;;;;;;4.05;1.45;;;;;;;3.04;73.31;99682.81;5022990;28;20557;-72
2021/01/20 05:05:20;;;;;;;4.05;1.50;;;;;;;3.05;72.84;99677.59;5023165;28;20094;-72
2021/01/20 05:07:47;;;;;;;3.47;1.17;;;;;;;3.14;73.25;99675.94;5019953;28;20404;-72
2021/01/20 05:10:13;;;;;;;4.25;1.40;;;;;;;3.14;72.37;99674.22;5019914;28;20057;-72
2021/01/20 05:12:43;;;;;;;3.38;1.42;;;;;;;3.22;73.05;99671.69;5021616;28;20440;-72
2021/01/20 05:15:11;;;;;;;3.15;1.50;;;;;;;3.28;72.70;99674.38;5022573;28;20124;-72
2021/01/20 05:17:54;;;;;;;2.90;1.40;;;;;;;3.30;72.60;99667.41;5015099;28;20048;-72
2021/01/20 05:20:26;;;;;;;;;;;;;;;3.26;72.66;99657.81;5020061;28;20151;-71
2021/01/20 05:22:58;;;;;;;3.33;1.30;;;;;;;3.29;73.07;99657.84;5019232;28;19964;-71
2021/01/20 05:25:29;;;;;;;3.67;1.27;;;;;;;3.24;72.97;99659.53;5019573;28;20504;-71
2021/01/20 05:27:54;;;;;;;4.65;1.35;;;;;;;3.23;73.07;99644.75;5022929;28;20040;-71
2021/01/20 05:30:20;;;;;;;3.17;1.48;;;;;;;3.23;73.16;99642.16;5017895;28;20034;-71
2021/01/20 05:32:56;;;;;;;4.45;1.60;;;;;;;3.22;73.06;99640.38;5016269;28;20124;-70
2021/01/20 05:35:22;;;;;;;3.47;1.50;;;;;;;3.19;73.34;99640.38;5019293;28;20112;-70
2021/01/20 05:37:48;;;;;;;5.05;1.77;;;;;;;3.15;73.51;99633.41;5030192;28;20556;-71
2021/01/20 05:40:15;;;;;;;3.47;1.65;;;;;;;3.10;73.77;99628.13;5026461;28;20025;-71
2021/01/20 05:42:49;;;;;;;5.07;2.03;;;;;;;3.02;73.81;99628.06;5028089;28;20030;-71
2021/01/20 05:45:15;;;;;;;6.30;2.50;;;;;;;2.98;73.70;99633.22;5019458;28;20042;-71
2021/01/20 05:48:19;;;;;;;4.30;1.58;;;;;;;2.93;73.74;99627.94;5021912;28;20041;-71
2021/01/20 05:50:56;;;;;;;3.60;1.75;;;;;;;2.94;73.51;99650.56;5008678;28;20049;-71
2021/01/20 05:53:21;;;;;;;4.78;2.30;;;;;;;3.01;73.60;99646.28;5004923;28;20121;-70
2021/01/20 05:56:03;;;;;;;4.68;2.40;;;;;;;3.04;73.53;99641.13;5017371;28;20528;-71
2021/01/20 05:58:41;;;;;;;4.35;1.80;;;;;;;3.05;73.64;99638.50;5020815;28;20041;-71
2021/01/20 06:01:08;;;;;;;4.95;2.22;;;;;;;3.09;73.72;99642.00;5022155;28;20451;-71
2021/01/20 06:03:34;;;;;;;4.40;2.08;;;;;;;3.12;73.70;99639.44;5028055;28;20456;-71
2021/01/20 06:06:02;;;;;;;25.30;15.80;;;;;;;3.10;73.36;99646.38;5019188;28;20044;-70
2021/01/20 06:08:34;;;;;;;7.00;3.40;;;;;;;3.20;74.23;99649.97;5019863;28;20042;-70
2021/01/20 06:10:59;;;;;;;4.35;2.25;;;;;;;3.33;73.05;99649.22;5022507;28;20037;-70
2021/01/20 06:13:25;;;;;;;5.20;2.03;;;;;;;3.45;72.33;99646.69;5021434;28;20042;-70
2021/01/20 06:15:55;;;;;;;4.88;2.40;;;;;;;3.57;71.96;99640.72;5018977;28;20087;-70
2021/01/20 06:18:24;;;;;;;4.25;1.83;;;;;;;3.62;71.64;99643.34;5013245;28;20495;-70
2021/01/20 06:20:52;;;;;;;4.35;2.22;;;;;;;3.69;71.29;99650.34;5021443;28;20029;-70
2021/01/20 06:23:23;;;;;;;4.55;1.85;;;;;;;3.69;71.13;99652.97;5028405;28;20033;-71
2021/01/20 06:25:55;;;;;;;3.80;1.53;;;;;;;3.74;70.88;99646.91;5026653;28;20492;-71
2021/01/20 06:28:20;;;;;;;3.47;1.40;;;;;;;3.81;70.36;99637.41;5025728;28;20495;-71
2021/01/20 06:30:50;;;;;;;2.60;1.30;;;;;;;3.87;69.50;99637.44;5022947;28;20053;-71
2021/01/20 06:33:18;;;;;;;3.63;1.73;;;;;;;3.98;68.99;99634.00;5022253;28;20038;-71
2021/01/20 06:35:51;;;;;;;3.22;1.50;;;;;;;4.05;69.04;99641.03;5025787;28;20040;-71
2021/01/20 06:38:28;;;;;;;4.75;1.50;;;;;;;4.15;68.57;99633.25;5025871;28;20041;-71
2021/01/20 06:41:00;;;;;;;3.22;1.10;;;;;;;4.24;67.89;99632.41;5022684;28;20038;-71
2021/01/20 06:43:36;;;;;;;4.15;1.30;;;;;;;4.34;67.43;99643.78;5022533;28;20053;-70
2021/01/20 06:46:27;;;;;;;2.95;1.38;;;;;;;4.41;66.57;99634.25;5025925;28;20038;-71
2021/01/20 06:48:55;;;;;;;3.15;1.30;;;;;;;4.53;66.27;99635.19;5021347;28;20034;-71
2021/01/20 06:51:22;;;;;;;2.97;1.20;;;;;;;4.67;66.25;99637.84;5022524;28;20042;-71
2021/01/20 06:54:10;;;;;;;3.38;1.10;;;;;;;4.71;65.15;99652.66;5021670;28;20034;-71
2021/01/20 06:56:40;;;;;;;5.53;1.20;;;;;;;4.78;65.30;99643.97;5024282;28;20425;-70
2021/01/20 06:59:24;;;;;;;3.95;1.60;;;;;;;4.83;64.43;99644.84;5025707;28;20048;-71
2021/01/20 07:02:01;;;;;;;4.63;1.52;;;;;;;4.95;64.51;99653.59;5022268;28;20551;-71
2021/01/20 07:04:36;;;;;;;4.05;1.33;;;;;;;4.96;64.40;99651.00;5022214;28;20045;-71
2021/01/20 07:07:01;;;;;;;4.32;1.55;;;;;;;5.01;64.83;99643.16;5025531;28;20519;-71
2021/01/20 07:09:50;;;;;;;4.63;1.80;;;;;;;4.99;64.22;99645.75;5024990;28;20073;-71
2021/01/20 07:12:22;;;;;;;5.57;1.90;;;;;;;4.99;64.28;99648.38;5021373;28;20060;-71
2021/01/20 07:14:54;;;;;;;6.10;2.33;;;;;;;5.00;64.63;99649.25;5022082;28;20124;-71
2021/01/20 07:17:20;;;;;;;;;;;;;;;5.01;63.84;99645.78;5016251;28;20060;-71
2021/01/20 07:19:47;;;;;;;4.75;1.73;;;;;;;5.12;63.34;99651.03;5017227;28;19963;-71
2021/01/20 07:22:13;;;;;;;4.30;1.77;;;;;;;5.19;63.78;99652.78;5024567;28;20045;-71
2021/01/20 07:24:38;;;;;;;4.38;1.67;;;;;;;5.16;63.20;99645.81;5023032;28;20073;-71
2021/01/20 07:27:09;;;;;;;4.13;1.20;;;;;;;5.20;62.70;99639.69;5014736;28;20045;-71
2021/01/20 07:29:34;;;;;;;2.40;1.02;;;;;;;5.26;62.58;99647.53;5021841;28;20105;-70
2021/01/20 07:32:01;;;;;;;3.03;1.48;;;;;;;5.39;62.14;99650.19;5021871;28;20118;-71
2021/01/20 07:34:37;;;;;;;2.60;1.10;;;;;;;5.53;61.78;99643.22;5021466;28;20072;-71
2021/01/20 07:37:08;;;;;;;2.80;1.00;;;;;;;5.56;61.78;99647.59;5024132;28;20045;-71
2021/01/20 07:39:33;;;;;;;3.67;1.50;;;;;;;5.57;61.09;99644.09;5023292;28;20037;-70
2021/01/20 07:41:59;;;;;;;3.50;1.45;;;;;;;5.69;61.39;99646.72;5021615;28;20084;-71
2021/01/20 07:44:25;;;;;;;3.33;1.20;;;;;;;5.79;61.13;99653.69;5021143;28;20041;-71
2021/01/20 07:47:04;;;;;;;4.30;1.58;;;;;;;5.84;60.69;99651.94;5028977;28;20030;-70
2021/01/20 07:49:31;;;;;;;3.22;1.40;;;;;;;5.89;60.99;99649.28;5022787;28;20064;-71
2021/01/20 07:52:00;;;;;;;4.75;1.73;;;;;;;5.91;60.55;99650.16;5026886;28;20033;-71
2021/01/20 07:54:39;;;;;;;3.67;1.50;;;;;;;5.94;60.59;99652.81;5028616;28;20048;-70
2021/01/20 07:57:13;;;;;;;5.22;1.52;;;;;;;5.99;60.58;99650.19;5026874;28;20485;-71
2021/01/20 07:59:39;;;;;;;5.40;2.10;;;;;;;6.10;60.44;99645.78;5023457;28;20065;-71
2021/01/20 08:02:17;;;;;;;3.35;1.52;;;;;;;6.16;60.62;99648.41;5024030;28;20136;-71
2021/01/20 08:04:42;;;;;;;3.97;1.40;;;;;;;6.22;59.96;99644.91;5021536;28;20559;-71
2021/01/20 08:07:09;;;;;;;3.50;1.63;;;;;;;6.36;60.60;99645.72;5029729;28;20061;-71
2021/01/20 08:09:34;;;;;;;3.80;1.50;;;;;;;6.42;60.26;99642.22;5024479;28;20036;-71
2021/01/20 08:12:00;;;;;;;3.92;1.63;;;;;;;6.45;59.27;99648.34;5024443;28;20589;-70
2021/01/20 08:14:25;;;;;;;3.35;1.60;;;;;;;6.49;58.73;99651.81;5023269;28;20043;-71
2021/01/20 08:16:51;;;;;;;4.05;1.70;;;;;;;6.63;59.56;99643.88;5012560;28;20488;-71
2021/01/20 08:19:19;;;;;;;3.20;1.35;;;;;;;6.72;58.88;99646.47;5014944;28;20037;-71
2021/01/20 08:21:45;;;;;;;4.38;1.20;;;;;;;6.69;58.88;99647.34;5023855;28;20025;-71
2021/01/20 08:24:10;;;;;;;3.10;1.23;;;;;;;6.67;59.36;99650.84;5023528;28;20049;-71
2021/01/20 08:26:36;;;;;;;3.17;1.33;;;;;;;6.58;59.54;99644.78;5026142;28;20064;-71
2021/01/20 08:29:09;;;;;;;3.60;1.38;;;;;;;6.53;59.53;99651.78;5024249;28;20091;-71
2021/01/20 08:31:36;;;;;;;3.22;1.00;;;;;;;6.55;59.93;99651.78;5022149;28;20044;-71
2021/01/20 08:34:19;;;;;;;3.10;1.20;;;;;;;6.55;58.62;99673.63;5020015;28;20046;-71
2021/01/20 08:36:56;;;;;;;3.25;1.30;;;;;;;6.55;58.81;99664.91;5023404;28;20037;-71
2021/01/20 08:39:23;;;;;;;2.83;1.10;;;;;;;6.58;59.18;99673.63;5023303;28;20506;-71
2021/01/20 08:42:33;;;;;;;4.07;1.27;;;;;;;6.58;58.56;99668.38;5019383;28;20022;-71
2021/01/20 08:45:11;;;;;;;2.72;1.13;;;;;;;6.59;59.06;99672.72;5020883;28;20046;-71
2021/01/20 08:48:01;;;;;;;4.88;1.23;;;;;;;6.63;59.27;99675.34;5028411;28;20048;-70
2021/01/20 08:50:27;;;;;;;2.08;0.90;;;;;;;6.62;58.98;99676.22;5020090;28;20069;-71
2021/01/20 08:52:53;;;;;;;5.53;2.58;;;;;;;6.65;60.84;99690.19;5022840;28;20060;-71
2021/01/20 08:55:23;;;;;;;3.45;1.40;;;;;;;6.76;59.82;99677.06;5023623;28;20033;-71
2021/01/20 08:58:21;;;;;;;3.42;1.50;;;;;;;6.81;59.71;99688.38;5020137;28;20038;-70
2021/01/20 09:00:49;;;;;;;2.33;1.13;;;;;;;6.86;58.40;99689.22;5023514;28;20048;-71
2021/01/20 09:03:23;;;;;;;2.47;1.10;;;;;;;6.84;58.47;99691.00;5022708;28;20083;-71
2021/01/20 09:05:52;;;;;;;3.58;1.20;;;;;;;6.89;57.69;99696.22;5022957;28;20044;-71
2021/01/20 09:08:18;;;;;;;3.05;1.10;;;;;;;7.02;57.93;99685.66;5018689;28;20037;-70
2021/01/20 09:10:46;;;;;;;3.40;1.42;;;;;;;7.12;58.08;99693.47;5020184;28;20033;-71
2021/01/20 09:13:12;;;;;;;3.47;1.27;;;;;;;7.20;56.98;99699.53;5025503;28;20109;-71
2021/01/20 09:15:38;;;;;;;3.33;1.50;;;;;;;7.30;56.20;99692.50;5027019;28;20040;-71
2021/01/20 09:18:06;;;;;;;3.20;1.38;;;;;;;7.34;56.85;99695.09;5025605;28;20037;-71
2021/01/20 09:20:32;;;;;;;4.10;1.70;;;;;;;7.46;56.89;99695.00;5020784;28;20100;-71
2021/01/20 09:22:58;;;;;;;4.95;2.00;;;;;;;7.59;55.72;99687.91;5030586;28;20189;-70
2021/01/20 09:25:23;;;;;;;4.15;1.65;;;;;;;7.83;56.55;99686.88;5022673;28;20726;-71
2021/01/20 09:27:48;;;;;;;3.78;1.38;;;;;;;7.94;55.42;99684.16;5019684;28;20470;-71
2021/01/20 09:30:14;;;;;;;5.47;1.88;;;;;;;8.01;55.12;99693.69;5019741;28;20512;-71
2021/01/20 09:32:40;;;;;;;5.05;1.63;;;;;;;8.06;55.33;99685.78;5025332;28;20056;-71
2021/01/20 09:35:13;;;;;;;3.92;1.67;;;;;;;8.12;55.09;99693.59;5025237;28;20112;-70
2021/01/20 09:37:40;;;;;;;3.90;1.65;;;;;;;8.16;54.81;99697.06;5021368;28;20075;-71
2021/01/20 09:40:08;;;;;;;5.85;1.95;;;;;;;7.93;53.86;99699.91;5022937;28;20034;-71
2021/01/20 09:42:35;;;;;;;4.47;1.45;;;;;;;7.87;54.15;99700.84;5020718;28;20064;-71
2021/01/20 09:45:00;;;;;;;5.35;1.50;;;;;;;7.87;54.89;99699.06;5019554;28;20065;-71
2021/01/20 09:47:25;;;;;;;5.18;1.80;;;;;;;7.88;56.53;99700.81;5027403;28;20452;-71
2021/01/20 09:49:51;;;;;;;3.40;1.50;;;;;;;7.91;55.98;99697.28;5019310;28;20041;-71
2021/01/20 09:52:17;;;;;;;3.40;1.15;;;;;;;8.01;55.24;99692.81;5018720;28;20060;-71
2021/01/20 09:54:43;;;;;;;2.65;1.25;;;;;;;8.11;55.24;99689.22;5022078;28;20117;-71
2021/01/20 09:57:09;;;;;;;3.47;1.20;;;;;;;8.19;54.24;99692.66;5022744;28;20068;-71
2021/01/20 09:59:34;;;;;;;2.83;1.00;;;;;;;8.19;54.57;99695.28;5020969;28;20040;-71
2021/01/20 10:02:00;;;;;;;2.83;1.30;;;;;;;8.26;54.24;99681.19;5022467;28;20026;-71
2021/01/20 10:04:25;;;;;;;3.83;1.40;;;;;;;8.37;55.28;99682.84;5023095;28;20109;-70
2021/01/20 10:06:53;;;;;;;3.28;1.65;;;;;;;8.40;54.00;99686.34;5026737;28;20076;-71
2021/01/20 10:09:18;;;;;;;3.40;1.10;;;;;;;8.40;54.69;99677.56;5026772;28;20056;-71
2021/01/20 10:11:44;;;;;;;2.85;1.15;;;;;;;8.46;54.10;99681.03;5023559;28;20042;-71
2021/01/20 10:14:09;;;;;;;5.45;1.42;;;;;;;8.53;54.40;99682.69;5022652;28;20073;-71
2021/01/20 10:16:34;;;;;;;4.20;1.60;;;;;;;8.52;54.17;99675.69;5031037;28;20030;-71
2021/01/20 10:19:00;;;;;;;3.45;1.48;;;;;;;8.56;52.70;99666.84;5017384;28;20026;-71
2021/01/20 10:21:25;;;;;;;2.78;1.27;;;;;;;8.59;53.63;99665.94;5023368;28;20103;-71
2021/01/20 10:23:50;;;;;;;3.45;1.42;;;;;;;8.69;53.53;99648.31;5025304;28;20140;-71
2021/01/20 10:26:16;;;;;;;3.60;1.50;;;;;;;8.75;52.33;99643.84;5024369;28;20056;-71
2021/01/20 10:28:43;;;;;;;3.03;1.20;;;;;;;8.82;52.16;99646.38;5021966;28;20110;-71
2021/01/20 10:31:08;;;;;;;3.30;1.20;;;;;;;8.90;51.99;99636.63;5023403;28;20045;-71
2021/01/20 10:33:34;;;;;;;2.80;1.13;;;;;;;8.93;52.34;99628.69;5017115;28;20042;-71
2021/01/20 10:35:59;;;;;;;2.50;1.00;;;;;;;8.91;51.62;99627.88;5021106;28;20073;-71
2021/01/20 10:38:24;;;;;;;2.13;0.90;;;;;;;8.91;51.18;99631.34;5025719;28;20068;-71
2021/01/20 10:40:50;;;;;;;4.80;1.27;;;;;;;8.83;52.28;99632.31;5034383;28;20084;-71
2021/01/20 10:43:15;;;;;;;2.95;1.33;;;;;;;8.75;52.10;99630.69;5025369;28;20065;-71
2021/01/20 10:45:40;;;;;;;2.47;1.02;;;;;;;8.70;52.49;99631.66;5025551;28;20084;-71
2021/01/20 10:48:06;;;;;;;3.22;1.30;;;;;;;8.67;52.06;99627.28;5027819;28;20030;-71
2021/01/20 10:50:31;;;;;;;3.38;1.20;;;;;;;8.64;53.05;99626.44;5023602;28;20041;-71
2021/01/20 10:52:56;;;;;;;3.22;1.30;;;;;;;8.60;52.88;99620.38;5025194;28;20053;-71
2021/01/20 10:55:22;;;;;;;3.80;1.85;;;;;;;8.55;53.04;99616.91;5025966;28;20034;-71
2021/01/20 10:57:47;;;;;;;4.20;1.30;;;;;;;8.57;53.36;99617.78;5022369;28;20492;-71
2021/01/20 11:00:13;;;;;;;3.25;1.30;;;;;;;8.68;54.06;99615.88;5022446;28;20485;-71
2021/01/20 11:02:38;;;;;;;2.90;1.00;;;;;;;8.77;53.75;99607.84;5023889;28;20436;-71
2021/01/20 11:05:04;;;;;;;1.80;0.90;;;;;;;8.78;52.43;99608.75;5033050;28;20411;-71
2021/01/20 11:07:29;;;;;;;3.97;1.42;;;;;;;8.87;51.12;99605.09;5024490;28;20472;-71
2021/01/20 11:09:56;;;;;;;4.45;1.55;;;;;;;9.04;51.62;99605.75;5028059;28;20037;-71
2021/01/20 11:12:22;;;;;;;3.25;1.05;;;;;;;9.19;51.83;99602.84;5032094;28;20042;-72
2021/01/20 11:14:48;;;;;;;2.78;1.27;;;;;;;9.29;51.90;99610.63;5029247;28;20088;-71
2021/01/20 11:17:13;;;;;;;3.10;1.30;;;;;;;9.31;52.09;99604.44;5022787;28;20080;-71
2021/01/20 11:19:39;;;;;;;2.45;1.10;;;;;;;9.43;51.77;99603.34;5017270;28;20444;-71
2021/01/20 11:22:07;;;;;;;3.42;1.20;;;;;;;9.50;50.30;99607.63;5023981;28;20033;-71
2021/01/20 11:24:32;;;;;;;5.03;2.50;;;;;;;9.60;50.94;99611.00;5016326;28;20046;-72
2021/01/20 11:26:58;;;;;;;3.92;1.63;;;;;;;9.65;50.35;99615.28;5025164;28;20029;-72
2021/01/20 11:29:24;;;;;;;3.85;1.80;;;;;;;9.65;50.58;99614.41;5025204;28;20466;-71
2021/01/20 11:31:50;;;;;;;2.88;1.20;;;;;;;9.63;50.09;99609.16;5021816;28;20053;-71
2021/01/20 11:34:15;;;;;;;2.45;1.10;;;;;;;9.63;50.48;99611.81;5020946;28;20034;-72
2021/01/20 11:36:41;;;;;;;3.67;1.20;;;;;;;9.71;50.70;99613.44;5023611;28;20041;-71
2021/01/20 11:39:06;;;;;;;3.65;1.35;;;;;;;9.71;50.41;99605.53;5020016;28;20037;-71
2021/01/20 11:41:31;;;;;;;1.98;0.85;;;;;;;9.66;49.80;99600.34;5022457;28;20069;-71
2021/01/20 11:43:56;;;;;;;2.75;1.17;;;;;;;9.68;50.59;99601.19;5024193;28;20030;-71
2021/01/20 11:46:22;;;;;;;4.88;1.58;;;;;;;9.69;49.97;99602.91;5024588;28;20033;-71
2021/01/20 11:48:48;;;;;;;3.72;1.48;;;;;;;9.73;49.11;99601.97;5024878;28;20045;-71
2021/01/20 11:51:14;;;;;;;4.38;1.58;;;;;;;9.68;50.49;99592.44;5024911;28;20457;-71
2021/01/20 11:53:40;;;;;;;2.90;1.40;;;;;;;9.80;48.70;99597.50;5021271;28;20183;-71
2021/01/20 11:56:05;;;;;;;3.55;1.58;;;;;;;9.80;50.31;99587.81;5021332;28;20041;-71
2021/01/20 11:58:30;;;;;;;4.15;1.35;;;;;;;9.88;48.43;99585.91;5021970;28;20480;-71
2021/01/20 12:00:56;;;;;;;3.10;1.20;;;;;;;9.96;47.81;99598.06;5024561;28;20132;-74
2021/01/20 12:03:23;;;;;;;4.20;1.80;;;;;;;10.07;48.66;99578.50;5023776;28;20116;-71